createdAt,value
2023-03-29T00:02:07.372Z,1.75
2023-03-29T00:04:52.900Z,1.61
2023-03-29T00:07:37.993Z,1.29
2023-03-29T00:10:23.668Z,1.20
2023-03-29T00:13:09.191Z,1.47
2023-03-29T00:15:55.418Z,1.37
2023-03-29T00:18:40.848Z,1.06
2023-03-29T00:21:26.594Z,1.27
2023-03-29T00:24:11.897Z,1.28
2023-03-29T00:26:57.594Z,1.36
2023-03-29T00:29:42.966Z,0.85
2023-03-29T00:32:28.554Z,1.35
2023-03-29T00:35:14.369Z,1.32
2023-03-29T00:37:59.706Z,1.04
2023-03-29T00:40:46.924Z,0.78
2023-03-29T00:43:51.845Z,0.92
2023-03-29T00:46:38.613Z,1.03
2023-03-29T00:49:24.130Z,0.54
2023-03-29T00:52:09.542Z,1.05
2023-03-29T00:54:55.962Z,1.09
2023-03-29T00:57:42.671Z,0.52
2023-03-29T01:00:36.733Z,0.33
2023-03-29T01:03:27.236Z,0.78
2023-03-29T01:06:16.294Z,0.80
2023-03-29T01:09:04.267Z,0.65
2023-03-29T01:11:56.200Z,0.95
2023-03-29T01:14:48.125Z,0.99
2023-03-29T01:17:33.696Z,0.96
2023-03-29T01:20:38.171Z,0.85
2023-03-29T01:23:40.975Z,0.98
2023-03-29T01:26:52.371Z,0.95
2023-03-29T01:29:47.073Z,0.93
2023-03-29T01:32:48.384Z,1.17
2023-03-29T01:35:48.010Z,1.08
2023-03-29T01:38:50.565Z,1.07
2023-03-29T01:42:09.116Z,1.17
2023-03-29T01:45:13.146Z,1.25
2023-03-29T01:48:14.145Z,0.62
2023-03-29T01:51:18.457Z,1.11
2023-03-29T01:54:10.325Z,1.39
2023-03-29T01:56:57.357Z,1.66
2023-03-29T01:59:46.138Z,1.70
2023-03-29T02:02:32.561Z,1.85
2023-03-29T02:05:19.617Z,1.91
2023-03-29T02:08:07.649Z,1.97
2023-03-29T02:10:53.706Z,1.84
2023-03-29T02:13:39.190Z,2.11
2023-03-29T02:16:24.574Z,2.12
2023-03-29T02:19:10.254Z,1.73
2023-03-29T02:21:59.628Z,2.01
2023-03-29T02:24:48.156Z,1.77
2023-03-29T02:27:33.786Z,1.78
2023-03-29T02:30:20.754Z,1.87
2023-03-29T02:33:26.734Z,1.82
2023-03-29T02:36:31.789Z,1.93
2023-03-29T02:39:19.604Z,1.94
2023-03-29T02:42:06.150Z,1.95
2023-03-29T02:44:56.701Z,1.74
2023-03-29T02:47:47.127Z,2.03
2023-03-29T02:50:37.798Z,2.07
2023-03-29T02:53:28.044Z,1.43
2023-03-29T02:56:13.826Z,1.94
2023-03-29T02:58:59.236Z,1.91
2023-03-29T03:01:45.386Z,1.96
2023-03-29T03:04:32.237Z,2.04
2023-03-29T03:07:18.041Z,2.03
2023-03-29T03:10:03.679Z,2.08
2023-03-29T03:12:48.983Z,2.08
2023-03-29T03:15:34.246Z,2.11
2023-03-29T03:18:19.852Z,2.23
2023-03-29T03:21:05.530Z,2.06
2023-03-29T03:23:51.606Z,2.19
2023-03-29T03:26:36.707Z,2.09
2023-03-29T03:29:25.420Z,2.19
2023-03-29T03:32:29.810Z,2.07
2023-03-29T03:35:34.244Z,1.62
2023-03-29T03:38:19.528Z,1.57
2023-03-29T03:41:12.236Z,1.89
2023-03-29T03:43:57.908Z,1.97
2023-03-29T03:46:44.027Z,1.98
2023-03-29T03:49:29.317Z,2.00
2023-03-29T03:52:14.744Z,1.81
2023-03-29T03:54:59.962Z,1.84
2023-03-29T03:57:59.871Z,1.85
2023-03-29T04:00:48.893Z,1.77
2023-03-29T04:03:54.596Z,2.09
2023-03-29T04:06:43.519Z,2.15
2023-03-29T04:09:56.495Z,1.69
2023-03-29T04:13:01.364Z,2.26
2023-03-29T04:15:47.312Z,2.24
2023-03-29T04:18:33.050Z,2.21
2023-03-29T04:21:21.128Z,2.21
2023-03-29T04:24:07.321Z,2.17
2023-03-29T04:26:55.302Z,2.13
2023-03-29T04:29:42.734Z,2.19
2023-03-29T04:32:36.945Z,2.28
2023-03-29T04:35:26.700Z,2.30
2023-03-29T04:38:12.184Z,2.26
2023-03-29T04:41:00.937Z,2.20
2023-03-29T04:44:06.784Z,2.08
2023-03-29T04:46:53.147Z,2.01
2023-03-29T04:49:58.523Z,2.11
2023-03-29T04:52:55.285Z,2.03
2023-03-29T04:55:41.031Z,1.90
2023-03-29T04:58:32.215Z,2.06
2023-03-29T05:01:19.843Z,1.86
2023-03-29T05:04:14.581Z,1.85
2023-03-29T05:07:12.939Z,2.16
2023-03-29T05:09:58.071Z,2.16
2023-03-29T05:12:43.347Z,2.25
2023-03-29T05:15:28.523Z,2.31
2023-03-29T05:18:13.747Z,2.34
2023-03-29T05:21:00.300Z,2.36
2023-03-29T05:23:46.631Z,2.36
2023-03-29T05:26:34.884Z,2.20
2023-03-29T05:29:21.592Z,2.17
2023-03-29T05:32:12.520Z,2.16
2023-03-29T05:34:57.558Z,2.25
2023-03-29T05:37:42.869Z,2.15
2023-03-29T05:40:28.228Z,2.29
2023-03-29T05:43:33.259Z,2.39
2023-03-29T05:46:21.541Z,2.50
2023-03-29T05:49:10.662Z,2.39
2023-03-29T05:52:18.914Z,1.91
2023-03-29T05:55:05.322Z,2.17
2023-03-29T05:57:50.862Z,2.14
2023-03-29T06:00:41.374Z,2.15
2023-03-29T06:03:42.903Z,2.35
2023-03-29T06:06:28.200Z,2.31
2023-03-29T06:09:13.449Z,2.41
2023-03-29T06:12:08.265Z,2.50
2023-03-29T06:15:01.746Z,2.67
2023-03-29T06:17:53.995Z,2.47
2023-03-29T06:20:39.247Z,2.26
2023-03-29T06:23:31.080Z,2.71
2023-03-29T06:26:16.819Z,2.90
2023-03-29T06:29:02.411Z,2.99
2023-03-29T06:31:48.355Z,2.94
2023-03-29T06:34:53.946Z,3.20
2023-03-29T06:37:59.156Z,3.04
2023-03-29T06:40:49.346Z,3.12
2023-03-29T06:43:36.498Z,3.06
2023-03-29T06:46:26.470Z,3.06
2023-03-29T06:49:14.702Z,3.23
2023-03-29T06:52:11.598Z,3.17
2023-03-29T06:54:57.192Z,3.28
2023-03-29T06:57:44.581Z,3.43
2023-03-29T07:00:30.300Z,3.27
2023-03-29T07:03:46.078Z,3.35
2023-03-29T07:06:32.244Z,3.49
2023-03-29T07:09:19.492Z,3.62
2023-03-29T07:12:30.759Z,3.84
2023-03-29T07:15:19.546Z,3.92
2023-03-29T07:18:41.926Z,3.78
2023-03-29T07:21:30.725Z,3.99
2023-03-29T07:24:16.567Z,3.62
2023-03-29T07:27:04.544Z,3.74
2023-03-29T07:29:51.432Z,3.61
2023-03-29T07:32:38.493Z,3.37
2023-03-29T07:35:45.964Z,3.77
2023-03-29T07:38:31.530Z,3.97
2023-03-29T07:41:24.997Z,4.01
2023-03-29T07:44:18.894Z,3.90
2023-03-29T07:47:04.496Z,3.83
2023-03-29T07:49:50.719Z,3.87
2023-03-29T07:52:37.944Z,4.10
2023-03-29T07:55:27.540Z,4.32
2023-03-29T07:58:22.627Z,4.13
2023-03-29T08:01:11.060Z,4.62
2023-03-29T08:04:20.233Z,4.65
2023-03-29T08:07:27.385Z,4.66
2023-03-29T08:10:32.729Z,4.93
2023-03-29T08:13:46.808Z,4.94
2023-03-29T08:16:41.787Z,4.65
2023-03-29T08:19:32.201Z,4.79
2023-03-29T08:22:28.007Z,4.77
2023-03-29T08:25:32.257Z,4.86
2023-03-29T08:28:17.662Z,4.72
2023-03-29T08:31:08.768Z,4.77
2023-03-29T08:33:57.237Z,4.86
2023-03-29T08:37:05.915Z,4.99
2023-03-29T08:39:59.436Z,5.20
2023-03-29T08:43:16.046Z,5.40
2023-03-29T08:46:35.536Z,5.71
2023-03-29T08:49:39.867Z,5.50
2023-03-29T08:52:33.278Z,6.00
2023-03-29T08:55:41.130Z,5.60
2023-03-29T08:58:51.776Z,5.56
2023-03-29T09:01:38.253Z,5.82
2023-03-29T09:04:33.361Z,5.84
2023-03-29T09:07:28.471Z,5.76
2023-03-29T09:10:21.053Z,5.42
2023-03-29T09:13:41.991Z,5.99
2023-03-29T09:16:54.560Z,6.64
2023-03-29T09:19:46.315Z,6.94
2023-03-29T09:22:59.296Z,6.98
2023-03-29T09:26:11.688Z,6.79
2023-03-29T09:29:25.858Z,6.56
2023-03-29T09:32:20.403Z,6.86
2023-03-29T09:35:37.128Z,6.99
2023-03-29T09:38:23.037Z,6.61
2023-03-29T09:41:23.424Z,6.71
2023-03-29T09:44:27.798Z,6.94
2023-03-29T09:47:30.361Z,7.16
2023-03-29T09:50:30.865Z,7.44
2023-03-29T09:53:21.863Z,7.87
2023-03-29T09:56:20.291Z,8.10
2023-03-29T09:59:12.681Z,7.78
2023-03-29T10:02:09.806Z,7.34
2023-03-29T10:04:55.095Z,6.94
2023-03-29T10:07:46.853Z,7.12
2023-03-29T10:10:35.311Z,7.17
2023-03-29T10:13:27.932Z,6.57
2023-03-29T10:16:30.345Z,7.04
2023-03-29T10:19:20.418Z,6.73
2023-03-29T10:22:14.458Z,6.73
2023-03-29T10:25:00.084Z,6.88
2023-03-29T10:27:47.635Z,6.78
2023-03-29T10:30:36.686Z,6.92
2023-03-29T10:33:24.681Z,7.04
2023-03-29T10:36:13.711Z,7.12
2023-03-29T10:39:05.068Z,7.47
2023-03-29T10:41:51.395Z,7.32
2023-03-29T10:44:37.374Z,7.35
2023-03-29T10:47:22.886Z,7.35
2023-03-29T10:50:16.017Z,7.47
2023-03-29T10:53:04.103Z,7.36
2023-03-29T10:56:30.786Z,7.59
2023-03-29T10:59:15.917Z,7.62
2023-03-29T11:02:14.379Z,7.52
2023-03-29T11:05:19.686Z,7.52
2023-03-29T11:08:32.257Z,7.45
2023-03-29T11:11:23.467Z,7.69
2023-03-29T11:14:15.717Z,7.72
2023-03-29T11:17:29.368Z,7.86
2023-03-29T11:20:36.178Z,7.71
2023-03-29T11:23:39.584Z,7.78
2023-03-29T11:26:59.060Z,7.55
2023-03-29T11:29:56.047Z,7.71
2023-03-29T11:33:03.391Z,7.77
2023-03-29T11:36:20.430Z,7.89
2023-03-29T11:39:23.777Z,7.82
2023-03-29T11:42:32.096Z,7.75
2023-03-29T11:45:27.082Z,7.71
2023-03-29T11:48:20.264Z,7.65
2023-03-29T11:51:24.818Z,7.70
2023-03-29T11:54:13.035Z,7.72
2023-03-29T11:57:14.362Z,7.71
2023-03-29T12:00:05.113Z,7.43
2023-03-29T12:03:09.352Z,7.66
2023-03-29T12:06:00.266Z,7.68
2023-03-29T12:08:52.862Z,8.13
2023-03-29T12:11:53.360Z,8.48
2023-03-29T12:14:58.022Z,8.41
2023-03-29T12:18:20.979Z,8.25
2023-03-29T12:21:12.257Z,8.63
2023-03-29T12:23:58.233Z,8.77
2023-03-29T12:27:02.029Z,8.97
2023-03-29T12:30:02.335Z,9.30
2023-03-29T12:33:06.680Z,9.37
2023-03-29T12:36:35.108Z,9.38
2023-03-29T12:39:43.831Z,9.42
2023-03-29T12:43:15.233Z,9.71
2023-03-29T12:46:27.564Z,9.62
2023-03-29T12:49:29.079Z,9.25
2023-03-29T12:52:42.418Z,9.53
2023-03-29T12:55:44.640Z,9.64
2023-03-29T12:58:39.427Z,9.41
2023-03-29T13:01:34.960Z,9.60
2023-03-29T13:04:22.273Z,9.55
2023-03-29T13:07:31.199Z,9.56
2023-03-29T13:10:36.070Z,9.89
2023-03-29T13:13:28.873Z,9.89
2023-03-29T13:16:16.137Z,9.84
2023-03-29T13:19:37.392Z,9.31
2023-03-29T13:22:22.517Z,9.85
2023-03-29T13:25:17.146Z,9.69
2023-03-29T13:28:23.853Z,9.65
2023-03-29T13:31:30.360Z,9.71
2023-03-29T13:34:37.296Z,9.79
2023-03-29T13:37:28.660Z,9.59
2023-03-29T13:40:31.419Z,9.82
2023-03-29T13:43:19.672Z,10.02
2023-03-29T13:46:26.688Z,10.12
2023-03-29T13:49:21.170Z,10.10
2023-03-29T13:52:15.020Z,10.00
2023-03-29T13:55:04.170Z,10.10
2023-03-29T13:57:55.218Z,9.78
2023-03-29T14:00:59.247Z,9.79
2023-03-29T14:03:47.918Z,9.73
2023-03-29T14:06:36.980Z,10.41
2023-03-29T14:09:27.682Z,10.22
2023-03-29T14:12:14.733Z,10.16
2023-03-29T14:15:03.494Z,10.06
2023-03-29T14:17:49.181Z,10.29
2023-03-29T14:20:34.893Z,10.18
2023-03-29T14:23:23.703Z,10.36
2023-03-29T14:26:20.849Z,10.36
2023-03-29T14:29:10.127Z,10.21
2023-03-29T14:31:55.979Z,10.13
2023-03-29T14:34:42.195Z,10.53
2023-03-29T14:37:28.653Z,10.35
2023-03-29T14:40:20.787Z,10.33
2023-03-29T14:43:07.757Z,10.31
2023-03-29T14:45:53.382Z,10.32
2023-03-29T14:48:39.023Z,10.24
2023-03-29T14:51:24.881Z,10.14
2023-03-29T14:54:19.515Z,10.44
2023-03-29T14:57:05.428Z,10.47
2023-03-29T14:59:58.661Z,10.50
2023-03-29T15:02:54.892Z,10.54
2023-03-29T15:05:42.441Z,10.46
2023-03-29T15:08:37.371Z,10.79
2023-03-29T15:11:25.714Z,10.50
2023-03-29T15:14:16.598Z,10.62
2023-03-29T15:17:05.047Z,10.79
2023-03-29T15:19:59.041Z,10.90
2023-03-29T15:22:59.337Z,11.05
2023-03-29T15:25:52.674Z,11.26
2023-03-29T15:28:47.014Z,11.02
2023-03-29T15:31:36.791Z,10.71
2023-03-29T15:34:33.645Z,10.70
2023-03-29T15:37:19.112Z,10.65
2023-03-29T15:40:06.371Z,10.41
2023-03-29T15:42:53.991Z,10.89
2023-03-29T15:45:39.599Z,10.48
2023-03-29T15:48:27.688Z,10.54
2023-03-29T15:51:15.934Z,10.55
2023-03-29T15:54:01.968Z,10.32
2023-03-29T15:56:56.826Z,10.72
2023-03-29T15:59:43.356Z,11.10
2023-03-29T16:02:30.635Z,11.41
2023-03-29T16:05:16.211Z,11.17
2023-03-29T16:08:01.267Z,10.70
2023-03-29T16:10:46.793Z,9.88
2023-03-29T16:13:32.254Z,10.07
2023-03-29T16:16:18.799Z,10.10
2023-03-29T16:19:03.997Z,9.89
2023-03-29T16:21:49.615Z,10.15
2023-03-29T16:24:35.799Z,10.03
2023-03-29T16:27:21.379Z,9.96
2023-03-29T16:30:07.622Z,10.03
2023-03-29T16:32:52.853Z,10.34
2023-03-29T16:35:40.048Z,10.28
2023-03-29T16:38:26.768Z,10.33
2023-03-29T16:41:16.484Z,9.77
2023-03-29T16:44:01.878Z,10.12
2023-03-29T16:46:48.096Z,10.00
2023-03-29T16:49:33.715Z,10.09
2023-03-29T16:52:19.667Z,9.91
2023-03-29T16:55:06.441Z,9.43
2023-03-29T16:57:52.398Z,9.61
2023-03-29T17:00:37.704Z,9.61
2023-03-29T17:03:24.088Z,9.50
2023-03-29T17:06:11.110Z,9.79
2023-03-29T17:08:56.450Z,10.03
2023-03-29T17:11:42.418Z,10.26
2023-03-29T17:14:27.592Z,10.05
2023-03-29T17:17:14.038Z,9.80
2023-03-29T17:20:00.374Z,9.98
2023-03-29T17:22:45.590Z,10.12
2023-03-29T17:25:31.303Z,10.20
2023-03-29T17:28:16.830Z,9.88
2023-03-29T17:31:06.400Z,9.38
2023-03-29T17:33:51.675Z,9.53
2023-03-29T17:36:37.226Z,9.47
2023-03-29T17:39:22.528Z,9.57
2023-03-29T17:42:08.093Z,9.36
2023-03-29T17:44:53.461Z,9.70
2023-03-29T17:47:39.094Z,9.84
2023-03-29T17:50:24.193Z,9.77
2023-03-29T17:53:11.758Z,9.48
2023-03-29T17:55:56.963Z,9.41
2023-03-29T17:58:42.246Z,9.53
2023-03-29T18:01:27.829Z,9.31
2023-03-29T18:04:13.502Z,8.85
2023-03-29T18:06:59.153Z,9.16
2023-03-29T18:09:46.114Z,9.08
2023-03-29T18:12:31.733Z,9.04
2023-03-29T18:15:17.535Z,9.51
2023-03-29T18:18:03.129Z,9.19
2023-03-29T18:20:48.467Z,9.21
2023-03-29T18:23:34.021Z,9.09
2023-03-29T18:26:19.511Z,9.46
2023-03-29T18:29:05.761Z,9.56
2023-03-29T18:31:52.448Z,9.53
2023-03-29T18:34:37.774Z,9.03
2023-03-29T18:37:23.040Z,8.97
2023-03-29T18:40:08.904Z,8.74
2023-03-29T18:42:54.628Z,8.99
2023-03-29T18:45:41.284Z,8.84
2023-03-29T18:48:28.039Z,8.90
2023-03-29T18:51:13.458Z,8.75
2023-03-29T18:53:59.073Z,8.90
2023-03-29T18:56:47.189Z,8.90
2023-03-29T18:59:33.821Z,9.02
2023-03-29T19:02:19.111Z,9.35
2023-03-29T19:05:05.278Z,9.16
2023-03-29T19:07:50.663Z,9.03
2023-03-29T19:10:38.167Z,9.12
2023-03-29T19:13:23.491Z,9.02
2023-03-29T19:16:09.208Z,8.97
2023-03-29T19:18:54.898Z,8.64
2023-03-29T19:21:40.363Z,9.08
2023-03-29T19:24:25.843Z,9.29
2023-03-29T19:27:12.596Z,9.47
2023-03-29T19:29:57.804Z,9.26
2023-03-29T19:32:43.075Z,9.45
2023-03-29T19:35:28.276Z,9.58
2023-03-29T19:38:13.532Z,9.41
2023-03-29T19:40:58.905Z,9.41
2023-03-29T19:43:44.028Z,9.18
2023-03-29T19:46:29.247Z,9.26
2023-03-29T19:49:15.239Z,9.32
2023-03-29T19:52:00.895Z,9.16
2023-03-29T19:54:46.090Z,8.95
2023-03-29T19:57:31.497Z,8.99
2023-03-29T20:00:17.028Z,9.17
2023-03-29T20:03:02.516Z,9.12
2023-03-29T20:05:48.086Z,9.03
2023-03-29T20:08:33.136Z,9.18
2023-03-29T20:11:18.807Z,9.27
2023-03-29T20:14:04.648Z,9.36
2023-03-29T20:16:50.153Z,9.30
2023-03-29T20:19:35.745Z,8.16
2023-03-29T20:22:21.870Z,9.06
2023-03-29T20:25:08.181Z,8.93
2023-03-29T20:27:53.767Z,9.37
2023-03-29T20:30:40.333Z,9.24
2023-03-29T20:33:25.818Z,9.10
2023-03-29T20:36:12.235Z,9.01
2023-03-29T20:38:57.690Z,8.99
2023-03-29T20:41:43.418Z,8.59
2023-03-29T20:44:29.103Z,8.73
2023-03-29T20:47:14.542Z,8.63
2023-03-29T20:50:00.165Z,8.98
2023-03-29T20:52:45.406Z,8.83
2023-03-29T20:55:30.933Z,8.80
2023-03-29T20:58:16.489Z,8.60
2023-03-29T21:01:02.184Z,8.92
2023-03-29T21:03:47.663Z,8.99
2023-03-29T21:06:33.449Z,8.92
2023-03-29T21:09:21.098Z,8.75
2023-03-29T21:12:06.879Z,8.76
2023-03-29T21:14:52.350Z,8.97
2023-03-29T21:17:37.649Z,8.82
2023-03-29T21:20:22.769Z,8.71
2023-03-29T21:23:08.392Z,8.62
2023-03-29T21:25:53.746Z,8.56
2023-03-29T21:28:39.144Z,8.54
2023-03-29T21:31:24.238Z,8.68
2023-03-29T21:34:09.620Z,9.01
2023-03-29T21:36:54.749Z,9.00
2023-03-29T21:39:39.996Z,8.62
2023-03-29T21:42:25.100Z,9.08
2023-03-29T21:45:10.811Z,8.97
2023-03-29T21:47:56.269Z,8.82
2023-03-29T21:50:41.634Z,9.06
2023-03-29T21:53:27.034Z,9.17
2023-03-29T21:56:12.305Z,9.18
2023-03-29T21:58:57.802Z,8.92
2023-03-29T22:01:43.254Z,9.04
2023-03-29T22:04:36.500Z,9.11
2023-03-29T22:07:22.951Z,9.22
2023-03-29T22:10:10.511Z,9.06
2023-03-29T22:12:57.106Z,9.19
2023-03-29T22:15:42.444Z,9.45
2023-03-29T22:18:29.504Z,9.37
2023-03-29T22:21:22.879Z,9.30
2023-03-29T22:24:08.241Z,9.41
2023-03-29T22:26:53.462Z,9.47
2023-03-29T22:29:39.038Z,9.48
2023-03-29T22:32:24.886Z,9.54
2023-03-29T22:35:10.437Z,9.55
2023-03-29T22:37:55.622Z,9.46
2023-03-29T22:40:40.937Z,9.64
2023-03-29T22:43:26.382Z,9.51
2023-03-29T22:46:13.737Z,9.57
2023-03-29T22:48:59.283Z,9.67
2023-03-29T22:51:45.005Z,9.73
2023-03-29T22:54:30.486Z,9.57
2023-03-29T22:57:15.788Z,9.91
2023-03-29T23:00:01.266Z,9.75
2023-03-29T23:02:46.713Z,9.75
2023-03-29T23:05:32.351Z,9.66
2023-03-29T23:08:17.963Z,9.80
2023-03-29T23:11:04.417Z,9.88
2023-03-29T23:13:50.677Z,9.97
2023-03-29T23:16:35.838Z,9.91
2023-03-29T23:19:21.073Z,9.66
2023-03-29T23:22:06.175Z,9.64
2023-03-29T23:24:51.598Z,9.63
2023-03-29T23:27:36.800Z,9.73
2023-03-29T23:30:22.486Z,9.65
2023-03-29T23:33:08.361Z,9.47
2023-03-29T23:35:53.929Z,9.22
2023-03-29T23:38:40.004Z,9.44
2023-03-29T23:41:25.364Z,9.37
2023-03-29T23:44:10.788Z,9.26
2023-03-29T23:46:56.201Z,9.00
2023-03-29T23:49:41.203Z,8.80
2023-03-29T23:52:27.046Z,8.76
2023-03-29T23:55:15.730Z,8.74
2023-03-29T23:58:01.147Z,8.65
